TJBQ/BQN METAR and TAF weather

Enter ICAO airport designator
Station Type Date Time Source
TJBQ METAR 2021/09/20 00:50 UTC NOAA

TJBQ 200050Z 10007KT 10SM SCT026 SCT070 24/23 A2993


Station Type Date Time Source
TJBQ Decoded METAR 2021/09/20 00:50 UTC NOAA

Aquadilla, Rafael Hernandez Airport, PR, United States (TJBQ) 18-30N 067-08W 69M
Sep 19, 2021 - 08:50 PM EDT / 2021.09.20 0050 UTC
Wind: from the E (100 degrees) at 8 MPH (7 KT):0
Visibility: 10 mile(s):0
Sky conditions: partly cloudy
Temperature: 75 F (24 C)
Dew Point: 73 F (23 C)
Relative Humidity: 94%
Pressure (altimeter): 29.93 in. Hg (1013 hPa)
ob: TJBQ 200050Z 10007KT 10SM SCT026 SCT070 24/23 A2993
cycle: 1

Station Type Date Time Source
TJBQ TAF 2021/09/19 23:06 UTC NOAA

TAF
AMD TJBQ 192303Z 1923/2018 09007KT P6SM VCSH FEW025 SCT060
TEMPO 1923/1924 VRB05KT 4SM SHRA BKN040
FM200900 09005KT P6SM VCSH SCT025
FM201600 09012G18KT P6SM RA VCTS SCT025CB
AMD NOT SKED 2002/2011

Example: see airport list